createdAt,value
2022-07-27T00:00:36.436Z,831.00
2022-07-27T00:01:35.787Z,831.00
2022-07-27T00:02:36.489Z,831.00
2022-07-27T00:03:38.073Z,826.00
2022-07-27T00:04:38.568Z,825.00
2022-07-27T00:05:38.246Z,825.00
2022-07-27T00:06:38.455Z,826.00
2022-07-27T00:07:39.800Z,814.00
2022-07-27T00:08:39.386Z,814.00
2022-07-27T00:09:40.768Z,814.00
2022-07-27T00:10:40.379Z,816.00
2022-07-27T00:11:41.812Z,818.00
2022-07-27T00:12:43.527Z,817.00
2022-07-27T00:13:43.027Z,826.00
2022-07-27T00:14:43.009Z,825.00
2022-07-27T00:15:44.598Z,825.00
2022-07-27T00:16:45.139Z,825.00
2022-07-27T00:17:44.591Z,825.00
2022-07-27T00:18:45.732Z,817.00
2022-07-27T00:18:57.874Z,811.00
2022-07-27T00:19:58.191Z,825.00
2022-07-27T00:21:00.035Z,825.00
2022-07-27T00:21:59.963Z,825.00
2022-07-27T00:23:00.657Z,825.00
2022-07-27T00:24:02.549Z,826.00
2022-07-27T00:25:02.073Z,825.00
2022-07-27T00:26:02.478Z,826.00
2022-07-27T00:27:02.916Z,825.00
2022-07-27T00:28:03.893Z,826.00
2022-07-27T00:29:04.486Z,826.00
2022-07-27T00:30:04.619Z,829.00
2022-07-27T00:31:05.037Z,831.00
2022-07-27T00:32:08.402Z,832.00
2022-07-27T00:33:06.001Z,830.00
2022-07-27T00:34:06.314Z,831.00
2022-07-27T00:35:07.355Z,831.00
2022-07-27T00:36:07.058Z,831.00
2022-07-27T00:37:09.044Z,818.00
2022-07-27T00:38:08.154Z,826.00
2022-07-27T00:39:09.586Z,826.00
2022-07-27T00:40:09.302Z,826.00
2022-07-27T00:41:09.654Z,826.00
2022-07-27T00:42:10.864Z,826.00
2022-07-27T00:43:11.256Z,826.00
2022-07-27T00:44:11.018Z,817.00
2022-07-27T00:45:12.113Z,826.00
2022-07-27T00:45:25.531Z,826.00
2022-07-27T00:46:25.938Z,828.00
2022-07-27T00:47:25.960Z,824.00
2022-07-27T00:48:27.255Z,824.00
2022-07-27T00:49:26.388Z,824.00
2022-07-27T00:50:26.230Z,820.00
2022-07-27T00:51:26.654Z,822.00
2022-07-27T00:52:27.085Z,822.00
2022-07-27T00:53:27.220Z,821.00
2022-07-27T00:54:27.936Z,822.00
2022-07-27T00:55:28.416Z,822.00
2022-07-27T00:56:30.070Z,821.00
2022-07-27T00:57:30.556Z,821.00
2022-07-27T00:58:30.399Z,810.00
2022-07-27T00:59:31.766Z,808.00
2022-07-27T01:00:31.801Z,821.00
2022-07-27T01:01:33.064Z,821.00
2022-07-27T01:02:32.151Z,812.00
2022-07-27T01:03:32.357Z,820.00
2022-07-27T01:04:33.787Z,820.00
2022-07-27T01:05:36.485Z,820.00
2022-07-27T01:06:33.177Z,806.00
2022-07-27T01:07:33.437Z,808.00
2022-07-27T01:08:33.886Z,807.00
2022-07-27T01:09:34.306Z,820.00
2022-07-27T01:10:35.426Z,818.00
2022-07-27T01:11:34.486Z,817.00
2022-07-27T01:11:43.320Z,807.00
2022-07-27T01:12:43.520Z,816.00
2022-07-27T01:13:44.985Z,816.00
2022-07-27T01:14:45.013Z,816.00
2022-07-27T01:15:45.260Z,814.00
2022-07-27T01:16:45.854Z,814.00
2022-07-27T01:17:46.578Z,814.00
2022-07-27T01:18:46.757Z,814.00
2022-07-27T01:19:47.097Z,814.00
2022-07-27T01:20:47.994Z,814.00
2022-07-27T01:21:48.507Z,809.00
2022-07-27T01:22:49.552Z,813.00
2022-07-27T01:23:50.006Z,816.00
2022-07-27T01:24:50.375Z,818.00
2022-07-27T01:25:51.364Z,807.00
2022-07-27T01:26:51.323Z,817.00
2022-07-27T01:27:52.691Z,816.00
2022-07-27T01:28:52.492Z,818.00
2022-07-27T01:29:53.660Z,818.00
2022-07-27T01:30:52.744Z,818.00
2022-07-27T01:31:53.697Z,818.00
2022-07-27T01:32:55.073Z,814.00
2022-07-27T01:33:55.559Z,814.00
2022-07-27T01:34:56.363Z,814.00
2022-07-27T01:35:56.353Z,816.00
2022-07-27T01:36:05.012Z,816.00
2022-07-27T01:37:05.618Z,814.00
2022-07-27T01:38:06.492Z,816.00
2022-07-27T01:39:07.416Z,814.00
2022-07-27T01:40:08.484Z,812.00
2022-07-27T01:41:08.578Z,812.00
2022-07-27T01:42:09.050Z,812.00
2022-07-27T01:43:08.542Z,811.00
2022-07-27T01:44:09.771Z,812.00
2022-07-27T01:45:10.059Z,811.00
2022-07-27T01:46:09.232Z,789.00
2022-07-27T01:47:14.737Z,793.00
2022-07-27T01:48:10.309Z,806.00
2022-07-27T01:49:11.906Z,799.00
2022-07-27T01:50:10.675Z,802.00
2022-07-27T01:51:10.800Z,802.00
2022-07-27T01:52:11.085Z,805.00
2022-07-27T01:53:12.695Z,804.00
2022-07-27T01:54:12.970Z,801.00
2022-07-27T01:55:12.152Z,802.00
2022-07-27T01:56:12.371Z,802.00
2022-07-27T01:57:13.989Z,801.00
2022-07-27T01:58:13.583Z,801.00
2022-07-27T01:59:16.181Z,801.00
2022-07-27T02:00:14.381Z,802.00
2022-07-27T02:01:14.818Z,796.00
2022-07-27T02:01:25.880Z,798.00
2022-07-27T02:02:26.066Z,788.00
2022-07-27T02:03:27.471Z,788.00
2022-07-27T02:04:27.084Z,801.00
2022-07-27T02:05:28.322Z,789.00
2022-07-27T02:06:27.365Z,795.00
2022-07-27T02:07:29.332Z,797.00
2022-07-27T02:08:28.338Z,782.00
2022-07-27T02:09:28.406Z,792.00
2022-07-27T02:10:28.566Z,786.00
2022-07-27T02:11:29.612Z,783.00
2022-07-27T02:12:30.496Z,784.00
2022-07-27T02:13:30.698Z,798.00
2022-07-27T02:14:31.230Z,785.00
2022-07-27T02:15:33.872Z,795.00
2022-07-27T02:16:30.931Z,799.00
2022-07-27T02:17:30.968Z,806.00
2022-07-27T02:18:36.156Z,805.00
2022-07-27T02:19:31.562Z,804.00
2022-07-27T02:20:31.584Z,802.00
2022-07-27T02:21:31.760Z,807.00
2022-07-27T02:22:33.150Z,807.00
2022-07-27T02:23:32.503Z,806.00
2022-07-27T02:24:33.860Z,807.00
2022-07-27T02:25:34.421Z,805.00
2022-07-27T02:26:34.039Z,806.00
2022-07-27T02:26:42.666Z,797.00
2022-07-27T02:27:42.952Z,806.00
2022-07-27T02:28:44.008Z,806.00
2022-07-27T02:29:44.185Z,808.00
2022-07-27T02:30:43.382Z,807.00
2022-07-27T02:31:44.484Z,808.00
2022-07-27T02:32:44.736Z,808.00
2022-07-27T02:33:44.039Z,808.00
2022-07-27T02:34:44.301Z,810.00
2022-07-27T02:35:45.988Z,807.00
2022-07-27T02:36:45.213Z,810.00
2022-07-27T02:37:46.603Z,811.00
2022-07-27T02:38:45.908Z,808.00
2022-07-27T02:39:47.239Z,808.00
2022-07-27T02:40:47.345Z,807.00
2022-07-27T02:41:48.334Z,809.00
2022-07-27T02:42:48.202Z,811.00
2022-07-27T02:43:49.438Z,811.00
2022-07-27T02:44:49.516Z,807.00
2022-07-27T02:45:48.943Z,801.00
2022-07-27T02:46:49.456Z,776.00
2022-07-27T02:47:49.742Z,807.00
2022-07-27T02:47:58.389Z,808.00
2022-07-27T02:48:59.366Z,810.00
2022-07-27T02:49:59.536Z,805.00
2022-07-27T02:51:00.289Z,801.00
2022-07-27T02:52:00.663Z,802.00
2022-07-27T02:53:02.051Z,799.00
2022-07-27T02:54:02.385Z,805.00
2022-07-27T02:55:01.766Z,804.00
2022-07-27T02:56:02.370Z,806.00
2022-07-27T02:57:02.857Z,810.00
2022-07-27T02:58:03.108Z,810.00
2022-07-27T02:59:04.161Z,799.00
2022-07-27T03:00:04.849Z,796.00
2022-07-27T03:01:05.360Z,799.00
2022-07-27T03:02:04.560Z,801.00
2022-07-27T03:03:05.169Z,802.00
2022-07-27T03:04:05.772Z,811.00
2022-07-27T03:05:06.644Z,809.00
2022-07-27T03:06:07.709Z,806.00
2022-07-27T03:07:06.945Z,805.00
2022-07-27T03:08:07.369Z,808.00
2022-07-27T03:09:09.060Z,808.00
2022-07-27T03:10:07.902Z,810.00
2022-07-27T03:11:08.325Z,811.00
2022-07-27T03:12:08.670Z,811.00
2022-07-27T03:13:08.913Z,811.00
2022-07-27T03:14:09.669Z,808.00
2022-07-27T03:15:10.077Z,811.00
2022-07-27T03:15:18.722Z,804.00
2022-07-27T03:16:19.242Z,802.00
2022-07-27T03:17:19.423Z,812.00
2022-07-27T03:18:20.106Z,801.00
2022-07-27T03:19:20.409Z,814.00
2022-07-27T03:20:21.831Z,812.00
2022-07-27T03:21:22.780Z,813.00
2022-07-27T03:22:21.957Z,813.00
2022-07-27T03:23:22.978Z,812.00
2022-07-27T03:24:23.541Z,812.00
2022-07-27T03:25:24.262Z,812.00
2022-07-27T03:26:24.564Z,812.00
2022-07-27T03:27:24.778Z,810.00
2022-07-27T03:28:25.316Z,811.00
2022-07-27T03:29:24.522Z,812.00
2022-07-27T03:30:25.301Z,811.00
2022-07-27T03:31:26.743Z,812.00
2022-07-27T03:32:26.221Z,811.00
2022-07-27T03:33:27.290Z,811.00
2022-07-27T03:34:27.659Z,813.00
2022-07-27T03:35:26.948Z,805.00
2022-07-27T03:36:28.194Z,811.00
2022-07-27T03:37:27.342Z,810.00
2022-07-27T03:37:36.019Z,809.00
2022-07-27T03:38:36.164Z,810.00
2022-07-27T03:39:36.219Z,811.00
2022-07-27T03:40:36.758Z,811.00
2022-07-27T03:41:36.917Z,812.00
2022-07-27T03:42:36.950Z,812.00
2022-07-27T03:43:38.325Z,812.00
2022-07-27T03:44:38.181Z,813.00
2022-07-27T03:45:39.034Z,813.00
2022-07-27T03:46:41.920Z,802.00
2022-07-27T03:47:39.773Z,812.00
2022-07-27T03:48:40.091Z,812.00
2022-07-27T03:49:41.015Z,811.00
2022-07-27T03:50:42.700Z,812.00
2022-07-27T03:51:42.825Z,811.00
2022-07-27T03:52:45.403Z,811.00
2022-07-27T03:53:42.370Z,814.00
2022-07-27T03:54:42.699Z,816.00
2022-07-27T03:55:42.728Z,814.00
2022-07-27T03:56:42.746Z,813.00
2022-07-27T03:57:42.866Z,813.00
2022-07-27T03:58:42.985Z,811.00
2022-07-27T03:59:43.258Z,811.00
2022-07-27T04:00:44.279Z,811.00
2022-07-27T04:00:53.001Z,804.00
2022-07-27T04:01:53.062Z,812.00
2022-07-27T04:02:54.331Z,812.00
2022-07-27T04:03:53.992Z,813.00
2022-07-27T04:04:54.063Z,813.00
2022-07-27T04:05:55.236Z,814.00
2022-07-27T04:06:55.553Z,814.00
2022-07-27T04:07:55.147Z,814.00
2022-07-27T04:08:59.598Z,805.00
2022-07-27T04:09:55.949Z,814.00
2022-07-27T04:10:57.839Z,814.00
2022-07-27T04:11:57.990Z,814.00
2022-07-27T04:12:57.426Z,814.00
2022-07-27T04:13:57.578Z,813.00
2022-07-27T04:14:57.598Z,812.00
2022-07-27T04:15:58.567Z,805.00
2022-07-27T04:16:59.795Z,812.00
2022-07-27T04:17:58.937Z,812.00
2022-07-27T04:18:58.932Z,811.00
2022-07-27T04:19:59.843Z,813.00
2022-07-27T04:20:59.894Z,813.00
2022-07-27T04:22:01.254Z,813.00
2022-07-27T04:23:01.882Z,813.00
2022-07-27T04:24:02.058Z,804.00
2022-07-27T04:25:01.722Z,811.00
2022-07-27T04:26:02.546Z,812.00
2022-07-27T04:26:11.388Z,811.00
2022-07-27T04:27:12.111Z,805.00
2022-07-27T04:28:13.888Z,805.00
2022-07-27T04:29:18.306Z,812.00
2022-07-27T04:30:13.172Z,812.00
2022-07-27T04:31:13.921Z,814.00
2022-07-27T04:32:13.697Z,813.00
2022-07-27T04:33:14.382Z,812.00
2022-07-27T04:34:15.768Z,813.00
2022-07-27T04:35:15.352Z,812.00
2022-07-27T04:36:15.475Z,812.00
2022-07-27T04:37:17.258Z,813.00
2022-07-27T04:38:18.064Z,814.00
2022-07-27T04:39:18.415Z,814.00
2022-07-27T04:40:19.036Z,813.00
2022-07-27T04:41:18.390Z,813.00
2022-07-27T04:42:19.981Z,814.00
2022-07-27T04:43:20.179Z,814.00
2022-07-27T04:44:19.437Z,806.00
2022-07-27T04:45:19.624Z,818.00
2022-07-27T04:46:19.981Z,805.00
2022-07-27T04:47:20.642Z,812.00
2022-07-27T04:48:20.306Z,809.00
2022-07-27T04:49:21.621Z,817.00
2022-07-27T04:50:20.493Z,807.00
2022-07-27T04:51:21.484Z,808.00
2022-07-27T04:51:34.494Z,811.00
2022-07-27T04:52:30.565Z,807.00
2022-07-27T04:53:30.945Z,812.00
2022-07-27T04:54:32.001Z,814.00
2022-07-27T04:55:32.957Z,816.00
2022-07-27T04:56:33.288Z,825.00
2022-07-27T04:57:33.435Z,825.00
2022-07-27T04:58:32.822Z,825.00
2022-07-27T04:59:33.945Z,823.00
2022-07-27T05:00:33.282Z,823.00
2022-07-27T05:01:35.433Z,813.00
2022-07-27T05:02:34.878Z,821.00
2022-07-27T05:03:36.229Z,821.00
2022-07-27T05:04:36.848Z,820.00
2022-07-27T05:05:36.733Z,818.00
2022-07-27T05:06:38.021Z,817.00
2022-07-27T05:07:37.444Z,817.00
2022-07-27T05:08:38.329Z,816.00
2022-07-27T05:09:39.400Z,818.00
2022-07-27T05:10:38.455Z,816.00
2022-07-27T05:11:39.482Z,818.00
2022-07-27T05:12:39.856Z,819.00
2022-07-27T05:13:40.307Z,810.00
2022-07-27T05:14:39.332Z,816.00
2022-07-27T05:14:49.955Z,817.00
2022-07-27T05:15:55.084Z,816.00
2022-07-27T05:16:51.132Z,816.00
2022-07-27T05:17:51.587Z,816.00
2022-07-27T05:18:51.764Z,817.00
2022-07-27T05:19:53.408Z,818.00
2022-07-27T05:20:53.245Z,820.00
2022-07-27T05:21:53.653Z,817.00
2022-07-27T05:22:54.773Z,809.00
2022-07-27T05:23:54.345Z,816.00
2022-07-27T05:24:55.912Z,814.00
2022-07-27T05:25:55.598Z,812.00
2022-07-27T05:26:57.187Z,814.00
2022-07-27T05:27:57.217Z,813.00
2022-07-27T05:28:57.910Z,821.00
2022-07-27T05:29:59.037Z,821.00
2022-07-27T05:30:58.946Z,821.00
2022-07-27T05:32:00.259Z,809.00
2022-07-27T05:32:59.442Z,816.00
2022-07-27T05:33:59.598Z,812.00
2022-07-27T05:35:00.180Z,812.00
2022-07-27T05:36:01.000Z,806.00
2022-07-27T05:37:01.033Z,796.00
2022-07-27T05:37:09.639Z,801.00
2022-07-27T05:38:10.040Z,796.00
2022-07-27T05:39:13.829Z,801.00
2022-07-27T05:40:10.908Z,802.00
2022-07-27T05:41:11.171Z,793.00
2022-07-27T05:42:12.345Z,805.00
2022-07-27T05:43:13.063Z,805.00
2022-07-27T05:44:12.711Z,807.00
2022-07-27T05:45:13.880Z,801.00
2022-07-27T05:46:14.072Z,804.00
2022-07-27T05:47:13.120Z,807.00
2022-07-27T05:48:14.204Z,807.00
2022-07-27T05:49:14.035Z,808.00
2022-07-27T05:50:13.904Z,806.00
2022-07-27T05:51:14.216Z,805.00
2022-07-27T05:52:15.363Z,806.00
2022-07-27T05:53:15.528Z,805.00
2022-07-27T05:54:14.675Z,802.00
2022-07-27T05:55:14.855Z,798.00
2022-07-27T05:56:14.898Z,797.00
2022-07-27T05:57:15.270Z,798.00
2022-07-27T05:58:17.094Z,798.00
2022-07-27T05:59:16.291Z,798.00
2022-07-27T06:00:17.135Z,798.00
2022-07-27T06:01:17.626Z,800.00
2022-07-27T06:02:17.979Z,813.00
2022-07-27T06:03:18.589Z,824.00
2022-07-27T06:04:18.870Z,825.00
2022-07-27T06:04:27.982Z,824.00
2022-07-27T06:05:28.884Z,825.00
2022-07-27T06:06:29.324Z,824.00
2022-07-27T06:07:29.532Z,825.00
2022-07-27T06:08:32.856Z,824.00
2022-07-27T06:09:30.303Z,824.00
2022-07-27T06:10:30.618Z,823.00
2022-07-27T06:11:30.816Z,821.00
2022-07-27T06:12:30.930Z,824.00
2022-07-27T06:13:31.894Z,824.00
2022-07-27T06:14:32.288Z,825.00
2022-07-27T06:15:33.627Z,826.00
2022-07-27T06:16:33.992Z,831.00
2022-07-27T06:17:33.165Z,831.00
2022-07-27T06:18:34.421Z,829.00
2022-07-27T06:19:36.018Z,830.00
2022-07-27T06:20:33.938Z,831.00
2022-07-27T06:21:35.336Z,832.00
2022-07-27T06:22:35.068Z,832.00
2022-07-27T06:23:35.130Z,833.00
2022-07-27T06:24:35.469Z,833.00
2022-07-27T06:25:36.595Z,831.00
2022-07-27T06:26:35.761Z,831.00
2022-07-27T06:27:37.921Z,830.00
2022-07-27T06:28:36.709Z,830.00
2022-07-27T06:29:37.447Z,826.00
2022-07-27T06:29:46.114Z,826.00
2022-07-27T06:30:46.789Z,826.00
2022-07-27T06:31:48.490Z,828.00
2022-07-27T06:32:47.847Z,825.00
2022-07-27T06:33:51.586Z,823.00
2022-07-27T06:34:49.198Z,822.00
2022-07-27T06:35:49.252Z,822.00
2022-07-27T06:36:49.484Z,821.00
2022-07-27T06:37:49.929Z,822.00
2022-07-27T06:38:50.497Z,821.00
2022-07-27T06:39:51.295Z,819.00
2022-07-27T06:40:52.762Z,821.00
2022-07-27T06:41:57.734Z,822.00
2022-07-27T06:42:52.203Z,824.00
2022-07-27T06:43:53.537Z,823.00
2022-07-27T06:44:53.368Z,823.00
2022-07-27T06:45:53.853Z,822.00
2022-07-27T06:46:53.984Z,821.00
2022-07-27T06:47:54.676Z,820.00
2022-07-27T06:48:54.971Z,821.00
2022-07-27T06:49:55.450Z,808.00
2022-07-27T06:50:56.803Z,820.00
2022-07-27T06:51:57.094Z,820.00
2022-07-27T06:52:56.406Z,817.00
2022-07-27T06:53:57.846Z,814.00
2022-07-27T06:54:56.823Z,812.00
2022-07-27T06:55:56.937Z,812.00
2022-07-27T06:56:57.328Z,811.00
2022-07-27T06:57:57.743Z,810.00
2022-07-27T06:58:06.367Z,808.00
2022-07-27T06:59:06.728Z,808.00
2022-07-27T07:00:06.806Z,793.00
2022-07-27T07:01:06.966Z,796.00
2022-07-27T07:02:07.160Z,794.00
2022-07-27T07:03:08.722Z,787.00
2022-07-27T07:04:08.619Z,785.00
2022-07-27T07:05:09.174Z,748.00
2022-07-27T07:06:09.527Z,808.00
2022-07-27T07:07:10.413Z,806.00
2022-07-27T07:08:11.652Z,801.00
2022-07-27T07:09:11.082Z,800.00
2022-07-27T07:10:11.010Z,801.00
2022-07-27T07:11:11.283Z,801.00
2022-07-27T07:12:11.701Z,801.00
2022-07-27T07:13:13.057Z,802.00
2022-07-27T07:14:12.721Z,795.00
2022-07-27T07:15:12.859Z,801.00
2022-07-27T07:16:13.991Z,800.00
2022-07-27T07:17:13.397Z,793.00
2022-07-27T07:18:14.256Z,798.00
2022-07-27T07:19:14.791Z,796.00
2022-07-27T07:20:15.060Z,786.00
2022-07-27T07:21:15.635Z,793.00
2022-07-27T07:22:15.632Z,793.00
2022-07-27T07:23:15.933Z,794.00
2022-07-27T07:24:16.107Z,795.00
2022-07-27T07:25:16.505Z,793.00
2022-07-27T07:26:17.809Z,792.00
2022-07-27T07:27:16.950Z,793.00
2022-07-27T07:27:34.476Z,792.00
2022-07-27T07:28:34.875Z,793.00
2022-07-27T07:29:36.090Z,792.00
2022-07-27T07:30:35.066Z,789.00
2022-07-27T07:31:35.620Z,792.00
2022-07-27T07:32:35.937Z,788.00
2022-07-27T07:33:36.784Z,788.00
2022-07-27T07:34:40.603Z,792.00
2022-07-27T07:35:38.379Z,792.00
2022-07-27T07:36:39.213Z,793.00
2022-07-27T07:37:39.411Z,793.00
2022-07-27T07:38:40.464Z,793.00
2022-07-27T07:39:40.865Z,794.00
2022-07-27T07:40:44.372Z,785.00
2022-07-27T07:41:41.732Z,788.00
2022-07-27T07:42:43.635Z,797.00
2022-07-27T07:43:42.908Z,798.00
2022-07-27T07:44:43.754Z,800.00
2022-07-27T07:45:50.003Z,794.00
2022-07-27T07:46:47.239Z,801.00
2022-07-27T07:47:44.459Z,801.00
2022-07-27T07:48:45.954Z,802.00
2022-07-27T07:49:45.697Z,806.00
2022-07-27T07:50:45.962Z,807.00
2022-07-27T07:51:46.006Z,806.00
2022-07-27T07:52:46.364Z,808.00
2022-07-27T07:53:47.267Z,808.00
2022-07-27T07:53:55.941Z,808.00
2022-07-27T07:54:56.032Z,807.00
2022-07-27T07:55:56.497Z,807.00
2022-07-27T07:56:56.746Z,807.00
2022-07-27T07:57:57.161Z,807.00
2022-07-27T07:58:59.380Z,811.00
2022-07-27T07:59:57.463Z,813.00
2022-07-27T08:00:57.952Z,813.00
2022-07-27T08:01:58.249Z,812.00
2022-07-27T08:02:58.351Z,814.00
2022-07-27T08:03:58.337Z,818.00
2022-07-27T08:04:58.762Z,805.00
2022-07-27T08:05:59.632Z,816.00
2022-07-27T08:06:59.874Z,816.00
2022-07-27T08:08:00.350Z,816.00
2022-07-27T08:09:02.336Z,816.00
2022-07-27T08:10:02.818Z,816.00
2022-07-27T08:11:02.355Z,818.00
2022-07-27T08:12:02.963Z,820.00
2022-07-27T08:13:03.462Z,820.00
2022-07-27T08:14:04.060Z,821.00
2022-07-27T08:15:05.668Z,821.00
2022-07-27T08:16:04.891Z,821.00
2022-07-27T08:17:05.072Z,821.00
2022-07-27T08:18:05.648Z,821.00
2022-07-27T08:19:05.915Z,822.00
2022-07-27T08:20:06.512Z,823.00
2022-07-27T08:21:06.835Z,824.00
2022-07-27T08:21:16.515Z,816.00
2022-07-27T08:22:16.783Z,814.00
2022-07-27T08:23:17.030Z,824.00
2022-07-27T08:24:17.282Z,824.00
2022-07-27T08:25:17.313Z,824.00
2022-07-27T08:26:17.643Z,825.00
2022-07-27T08:27:18.516Z,824.00
2022-07-27T08:28:18.849Z,824.00
2022-07-27T08:29:23.046Z,823.00
2022-07-27T08:30:19.213Z,824.00
2022-07-27T08:31:26.514Z,824.00
2022-07-27T08:32:20.668Z,821.00
2022-07-27T08:33:21.283Z,820.00
2022-07-27T08:34:21.608Z,818.00
2022-07-27T08:35:21.726Z,814.00
2022-07-27T08:36:22.168Z,814.00
2022-07-27T08:37:23.419Z,816.00
2022-07-27T08:38:23.494Z,821.00
2022-07-27T08:40:20.122Z,818.00
2022-07-27T08:40:41.695Z,817.00
2022-07-27T08:41:24.459Z,818.00
2022-07-27T08:42:25.228Z,817.00
2022-07-27T08:43:25.702Z,816.00
2022-07-27T08:44:25.561Z,814.00
2022-07-27T08:45:25.876Z,814.00
2022-07-27T08:46:26.035Z,821.00
2022-07-27T08:47:26.483Z,814.00
2022-07-27T08:48:26.860Z,816.00
2022-07-27T08:49:41.982Z,818.00
2022-07-27T08:50:28.034Z,810.00
2022-07-27T08:51:28.894Z,817.00
2022-07-27T08:51:37.550Z,820.00
2022-07-27T08:52:38.339Z,819.00
2022-07-27T08:53:53.154Z,813.00
2022-07-27T08:54:39.409Z,814.00
2022-07-27T08:55:39.897Z,812.00
2022-07-27T08:56:40.393Z,816.00
2022-07-27T08:57:40.547Z,814.00
2022-07-27T08:58:41.253Z,814.00
2022-07-27T08:59:41.790Z,813.00
2022-07-27T09:00:42.130Z,789.00
2022-07-27T09:01:42.858Z,818.00
2022-07-27T09:02:43.032Z,817.00
2022-07-27T09:03:43.437Z,818.00
2022-07-27T09:04:43.979Z,820.00
2022-07-27T09:05:44.196Z,805.00
2022-07-27T09:06:45.066Z,818.00
2022-07-27T09:07:45.573Z,820.00
2022-07-27T09:08:51.381Z,820.00
2022-07-27T09:09:46.422Z,820.00
2022-07-27T09:10:46.673Z,821.00
2022-07-27T09:11:47.493Z,820.00
2022-07-27T09:12:47.539Z,812.00
2022-07-27T09:13:47.971Z,807.00
2022-07-27T09:14:52.878Z,818.00
2022-07-27T09:16:16.359Z,818.00
2022-07-27T09:17:46.509Z,818.00
2022-07-27T09:17:50.349Z,818.00
2022-07-27T09:18:50.082Z,817.00
2022-07-27T09:19:50.331Z,819.00
2022-07-27T09:20:50.429Z,820.00
2022-07-27T09:21:51.031Z,821.00
2022-07-27T09:22:51.187Z,812.00
2022-07-27T09:22:59.907Z,818.00
2022-07-27T09:24:00.532Z,818.00
2022-07-27T09:25:00.937Z,818.00
2022-07-27T09:26:04.844Z,818.00
2022-07-27T09:27:01.961Z,818.00
2022-07-27T09:28:01.827Z,818.00
2022-07-27T09:29:03.653Z,818.00
2022-07-27T09:30:02.851Z,818.00
2022-07-27T09:31:03.266Z,819.00
2022-07-27T09:32:03.619Z,818.00
2022-07-27T09:33:04.494Z,818.00
2022-07-27T09:34:05.731Z,816.00
2022-07-27T09:35:05.138Z,817.00
2022-07-27T09:36:05.576Z,814.00
2022-07-27T09:37:06.185Z,816.00
2022-07-27T09:38:07.979Z,814.00
2022-07-27T09:39:07.635Z,814.00
2022-07-27T09:40:07.886Z,817.00
2022-07-27T09:41:08.177Z,814.00
2022-07-27T09:42:08.604Z,818.00
2022-07-27T09:43:31.768Z,818.00
2022-07-27T09:44:31.224Z,816.00
2022-07-27T09:45:09.882Z,816.00
2022-07-27T09:46:10.239Z,821.00
2022-07-27T09:47:10.455Z,821.00
2022-07-27T09:48:10.513Z,822.00
2022-07-27T09:49:11.158Z,821.00
2022-07-27T09:50:11.854Z,820.00
2022-07-27T09:52:12.912Z,806.00
2022-07-27T09:53:41.345Z,818.00
2022-07-27T09:54:14.734Z,820.00
2022-07-27T09:55:13.957Z,818.00
2022-07-27T09:55:23.081Z,818.00
2022-07-27T09:56:23.975Z,817.00
2022-07-27T09:57:24.712Z,819.00
2022-07-27T09:58:24.774Z,819.00
2022-07-27T09:59:25.376Z,814.00
2022-07-27T10:00:25.361Z,821.00
2022-07-27T10:01:26.738Z,820.00
2022-07-27T10:02:25.912Z,821.00
2022-07-27T10:03:26.127Z,816.00
2022-07-27T10:04:26.701Z,816.00
2022-07-27T10:05:26.543Z,820.00
2022-07-27T10:06:27.081Z,818.00
2022-07-27T10:07:27.494Z,818.00
2022-07-27T10:08:27.519Z,816.00
2022-07-27T10:09:29.541Z,816.00
2022-07-27T10:10:28.769Z,818.00
2022-07-27T10:11:29.525Z,819.00
2022-07-27T10:12:29.886Z,818.00
2022-07-27T10:13:29.909Z,818.00
2022-07-27T10:14:59.615Z,818.00
2022-07-27T10:15:59.556Z,808.00
2022-07-27T10:17:00.534Z,816.00
2022-07-27T10:18:01.709Z,807.00
2022-07-27T10:19:01.294Z,816.00
2022-07-27T10:20:01.904Z,817.00
2022-07-27T10:21:03.243Z,800.00
2022-07-27T10:22:03.128Z,818.00
2022-07-27T10:23:04.449Z,818.00
2022-07-27T10:24:04.442Z,818.00
2022-07-27T10:25:04.547Z,816.00
2022-07-27T10:26:04.950Z,816.00
2022-07-27T10:27:05.182Z,813.00
2022-07-27T10:28:06.450Z,817.00
2022-07-27T10:29:06.931Z,819.00
2022-07-27T10:30:06.206Z,820.00
2022-07-27T10:31:06.554Z,819.00
2022-07-27T10:32:06.844Z,817.00
2022-07-27T10:33:08.046Z,814.00
2022-07-27T10:34:07.308Z,820.00
2022-07-27T10:35:07.739Z,817.00
2022-07-27T10:36:07.965Z,816.00
2022-07-27T10:37:08.802Z,820.00
2022-07-27T10:37:18.311Z,819.00
2022-07-27T10:38:27.676Z,811.00
2022-07-27T10:39:19.759Z,819.00
2022-07-27T10:40:20.166Z,821.00
2022-07-27T10:41:20.376Z,820.00
2022-07-27T10:42:21.885Z,811.00
2022-07-27T10:43:21.713Z,821.00
2022-07-27T10:44:22.585Z,819.00
2022-07-27T10:45:23.372Z,818.00
2022-07-27T10:46:24.104Z,818.00
2022-07-27T10:47:24.241Z,816.00
2022-07-27T10:48:26.872Z,816.00
2022-07-27T10:49:24.948Z,816.00
2022-07-27T10:50:25.691Z,814.00
2022-07-27T10:51:25.675Z,811.00
2022-07-27T10:52:27.597Z,818.00
2022-07-27T10:53:27.295Z,818.00
2022-07-27T10:54:28.233Z,807.00
2022-07-27T10:55:32.065Z,813.00
2022-07-27T10:56:35.210Z,821.00
2022-07-27T10:57:30.470Z,820.00
2022-07-27T10:58:29.781Z,820.00
2022-07-27T10:59:51.003Z,820.00
2022-07-27T11:00:30.668Z,819.00
2022-07-27T11:01:31.421Z,820.00
2022-07-27T11:01:40.306Z,820.00
2022-07-27T11:02:41.217Z,821.00
2022-07-27T11:03:44.021Z,820.00
2022-07-27T15:58:41.230Z,802.00
2022-07-27T15:59:29.511Z,805.00
2022-07-27T16:00:29.495Z,814.00
2022-07-27T16:01:35.517Z,805.00
2022-07-27T16:02:30.503Z,804.00
2022-07-27T16:03:33.116Z,806.00
2022-07-27T16:04:31.805Z,806.00
2022-07-27T16:05:32.773Z,805.00
2022-07-27T16:06:38.264Z,805.00
2022-07-27T16:07:41.736Z,814.00
2022-07-27T16:08:34.303Z,816.00
2022-07-27T16:09:34.508Z,816.00
2022-07-27T16:10:36.044Z,806.00
2022-07-27T16:11:36.150Z,802.00
2022-07-27T16:12:38.320Z,805.00
2022-07-27T16:13:36.546Z,814.00
2022-07-27T16:14:38.079Z,813.00
2022-07-27T16:15:37.542Z,814.00
2022-07-27T16:15:49.797Z,812.00
2022-07-27T16:16:50.347Z,816.00
2022-07-27T16:17:50.591Z,814.00
2022-07-27T16:18:52.139Z,814.00
2022-07-27T16:19:51.353Z,814.00
2022-07-27T16:20:52.522Z,816.00
2022-07-27T16:21:55.199Z,818.00
2022-07-27T16:22:52.380Z,818.00
2022-07-27T16:23:53.528Z,818.00
2022-07-27T16:24:52.725Z,816.00
2022-07-27T16:26:03.954Z,806.00
2022-07-27T16:26:53.166Z,814.00
2022-07-27T16:27:53.493Z,817.00
2022-07-27T16:28:53.531Z,816.00
2022-07-27T16:29:53.815Z,816.00
2022-07-27T16:30:54.924Z,816.00
2022-07-27T16:31:54.419Z,814.00
2022-07-27T16:32:54.677Z,814.00
2022-07-27T16:33:55.298Z,806.00
2022-07-27T16:34:55.407Z,814.00
2022-07-27T16:35:56.857Z,800.00
2022-07-27T16:36:56.417Z,814.00
2022-07-27T16:37:57.211Z,801.00
2022-07-27T16:38:57.995Z,804.00
2022-07-27T16:39:59.231Z,813.00
2022-07-27T16:41:02.693Z,804.00
2022-07-27T16:42:01.049Z,804.00
2022-07-27T16:43:01.863Z,805.00
2022-07-27T16:44:00.971Z,813.00
2022-07-27T16:44:09.418Z,813.00
2022-07-27T16:45:11.627Z,805.00
2022-07-27T16:46:10.842Z,814.00
2022-07-27T16:47:11.654Z,814.00
2022-07-27T16:48:13.571Z,816.00
2022-07-27T16:49:14.047Z,816.00
2022-07-27T16:50:14.367Z,816.00
2022-07-27T16:51:15.142Z,806.00
2022-07-27T16:52:16.139Z,816.00
2022-07-27T16:53:16.189Z,817.00
2022-07-27T16:54:16.341Z,816.00
2022-07-27T16:55:16.494Z,818.00
2022-07-27T16:56:20.572Z,818.00
2022-07-27T16:57:17.616Z,818.00
2022-07-27T16:58:18.376Z,806.00
2022-07-27T16:59:21.787Z,814.00
2022-07-27T17:00:19.537Z,816.00
2022-07-27T17:01:26.236Z,818.00
2022-07-27T17:02:20.496Z,807.00
2022-07-27T17:03:21.380Z,817.00
2022-07-27T17:04:21.599Z,817.00
2022-07-27T17:05:22.400Z,816.00
2022-07-27T17:06:23.056Z,816.00